createdAt,value
2022-08-16T00:00:03.692Z,100837.47
2022-08-16T00:02:33.718Z,100835.16
2022-08-16T00:05:01.506Z,100840.06
2022-08-16T00:07:29.851Z,100830.72
2022-08-16T00:09:58.835Z,100826.91
2022-08-16T00:12:28.402Z,100824.59
2022-08-16T00:14:57.120Z,100823.97
2022-08-16T00:17:25.479Z,100822.34
2022-08-16T00:19:55.202Z,100808.44
2022-08-16T00:22:25.139Z,100809.16
2022-08-16T00:24:54.639Z,100813.25
2022-08-16T00:27:23.137Z,100808.00
2022-08-16T00:30:08.604Z,100815.44
2022-08-16T00:32:38.678Z,100805.31
2022-08-16T00:35:11.024Z,100811.72
2022-08-16T00:37:57.392Z,100816.00
2022-08-16T00:40:36.948Z,100807.75
2022-08-16T00:43:25.029Z,100804.44
2022-08-16T00:46:34.337Z,100813.53
2022-08-16T00:49:01.227Z,100812.28
2022-08-16T00:51:29.697Z,100811.03
2022-08-16T00:53:59.847Z,100823.09
2022-08-16T00:56:57.594Z,100818.69
2022-08-16T00:59:21.209Z,100824.41
2022-08-16T01:01:51.588Z,100817.22
2022-08-16T01:04:29.014Z,100824.41
2022-08-16T01:07:02.365Z,100829.69
2022-08-16T01:09:33.593Z,100832.84
2022-08-16T01:12:02.274Z,100828.81
2022-08-16T01:14:35.012Z,100827.31
2022-08-16T01:17:03.754Z,100835.56
2022-08-16T01:19:58.209Z,100835.75
2022-08-16T01:23:10.569Z,100834.47
2022-08-16T01:25:41.985Z,100845.88
2022-08-16T01:28:20.041Z,100839.31
2022-08-16T01:30:50.710Z,100837.63
2022-08-16T01:33:19.854Z,100842.28
2022-08-16T01:36:00.702Z,100843.75
2022-08-16T01:38:49.339Z,100847.56
2022-08-16T01:41:29.659Z,100845.44
2022-08-16T01:44:01.259Z,100839.94
2022-08-16T01:46:44.855Z,100847.34
2022-08-16T01:49:18.878Z,100860.06
2022-08-16T01:51:50.422Z,100846.50
2022-08-16T01:54:17.193Z,100848.84
2022-08-16T01:56:58.860Z,100853.09
2022-08-16T01:59:26.215Z,100860.75
2022-08-16T02:02:00.132Z,100864.13
2022-08-16T02:04:48.376Z,100860.13
2022-08-16T02:07:18.559Z,100859.09
2022-08-16T02:09:57.448Z,100862.28
2022-08-16T02:12:49.440Z,100867.34
2022-08-16T02:15:15.879Z,100873.72
2022-08-16T02:17:43.469Z,100875.38
2022-08-16T02:20:12.227Z,100872.84
2022-08-16T02:22:39.983Z,100875.19
2022-08-16T02:25:14.770Z,100884.94
2022-08-16T02:27:44.581Z,100885.34
2022-08-16T02:30:35.741Z,100894.88
2022-08-16T02:33:05.376Z,100881.75
2022-08-16T02:35:33.722Z,100880.94
2022-08-16T02:38:01.692Z,100880.94
2022-08-16T02:40:36.442Z,100876.91
2022-08-16T02:43:04.523Z,100875.81
2022-08-16T02:45:31.968Z,100876.03
2022-08-16T02:48:01.560Z,100877.13
2022-08-16T02:50:54.884Z,100880.72
2022-08-16T02:53:33.596Z,100886.22
2022-08-16T02:56:00.670Z,100890.03
2022-08-16T02:58:28.147Z,100889.84
2022-08-16T03:00:57.872Z,100900.41
2022-08-16T03:03:26.552Z,100896.41
2022-08-16T03:05:53.549Z,100903.81
2022-08-16T03:08:50.254Z,100903.19
2022-08-16T03:11:16.646Z,100915.63
2022-08-16T03:13:51.627Z,100906.13
2022-08-16T03:16:38.374Z,100908.88
2022-08-16T03:19:08.621Z,100912.03
2022-08-16T03:21:37.902Z,100917.53
2022-08-16T03:24:27.692Z,100924.53
2022-08-16T03:26:59.032Z,100928.97
2022-08-16T03:29:32.353Z,100930.66
2022-08-16T03:32:01.263Z,100936.78
2022-08-16T03:34:29.424Z,100934.91
2022-08-16T03:36:58.442Z,100937.66
2022-08-16T03:39:25.907Z,100932.97
2022-08-16T03:41:59.302Z,100936.78
2022-08-16T03:44:44.646Z,100933.63
2022-08-16T03:47:18.512Z,100936.81
2022-08-16T03:49:51.705Z,100927.47
2022-08-16T03:52:23.518Z,100933.63
2022-08-16T03:54:53.540Z,100932.13
2022-08-16T03:57:31.851Z,100938.06
2022-08-16T04:00:35.168Z,100937.44
2022-08-16T04:03:07.270Z,100942.06
2022-08-16T04:05:36.798Z,100944.41
2022-08-16T04:08:15.138Z,100941.44
2022-08-16T04:10:52.656Z,100936.59
2022-08-16T04:13:20.323Z,100946.72
2022-08-16T04:15:48.108Z,100945.88
2022-08-16T04:18:20.006Z,100938.06
2022-08-16T04:20:49.074Z,100943.13
2022-08-16T04:23:16.163Z,100949.03
2022-08-16T04:25:47.083Z,100946.72
2022-08-16T04:28:54.435Z,100942.47
2022-08-16T04:31:01.283Z,100950.28
2022-08-16T04:33:28.053Z,100947.28
2022-08-16T04:35:58.044Z,100947.72
2022-08-16T04:38:25.979Z,100943.91
2022-08-16T04:40:54.435Z,100948.97
2022-08-16T04:43:21.145Z,100951.31
2022-08-16T04:46:00.544Z,100957.84
2022-08-16T04:48:28.600Z,100955.31
2022-08-16T04:51:01.264Z,100948.97
2022-08-16T04:53:35.411Z,100946.84
2022-08-16T04:56:11.184Z,100949.78
2022-08-16T04:58:43.901Z,100956.75
2022-08-16T05:01:13.499Z,100964.34
2022-08-16T05:04:00.877Z,100964.97
2022-08-16T05:06:45.217Z,100957.81
2022-08-16T05:09:12.735Z,100963.69
2022-08-16T05:11:39.755Z,100961.38
2022-08-16T05:14:07.530Z,100969.38
2022-08-16T05:16:35.931Z,100971.66
2022-08-16T05:19:02.982Z,100974.19
2022-08-16T05:21:38.304Z,100966.16
2022-08-16T05:24:07.526Z,100981.59
2022-08-16T05:26:40.911Z,100980.09
2022-08-16T05:29:10.867Z,100987.25
2022-08-16T05:31:48.048Z,100994.44
2022-08-16T05:34:22.469Z,100993.81
2022-08-16T05:36:51.310Z,100991.88
2022-08-16T05:39:19.038Z,100988.50
2022-08-16T05:41:48.932Z,100998.59
2022-08-16T05:44:23.279Z,100996.94
2022-08-16T05:46:57.320Z,100999.22
2022-08-16T05:49:36.938Z,101009.97
2022-08-16T05:52:11.576Z,101016.31
2022-08-16T05:54:47.175Z,101019.25
2022-08-16T05:57:17.894Z,101020.09
2022-08-16T05:59:47.478Z,101017.56
2022-08-16T06:02:29.114Z,101031.91
2022-08-16T06:04:56.149Z,101031.06
2022-08-16T06:07:25.047Z,101031.91
2022-08-16T06:09:56.517Z,101032.97
2022-08-16T06:12:26.930Z,101033.19
2022-08-16T06:14:59.507Z,101035.25
2022-08-16T06:17:43.834Z,101035.47
2022-08-16T06:20:18.435Z,101030.63
2022-08-16T06:22:57.711Z,101028.94
2022-08-16T06:25:36.027Z,101024.50
2022-08-16T06:28:08.765Z,101034.63
2022-08-16T06:30:36.709Z,101032.53
2022-08-16T06:33:12.509Z,101032.97
2022-08-16T06:35:41.511Z,101039.09
2022-08-16T06:38:32.473Z,101040.19
2022-08-16T06:40:56.858Z,101040.84
2022-08-16T06:43:27.537Z,101046.56
2022-08-16T06:45:54.812Z,101043.19
2022-08-16T06:48:33.160Z,101053.94
2022-08-16T06:51:02.806Z,101055.66
2022-08-16T06:53:35.402Z,101058.19
2022-08-16T06:56:05.998Z,101061.19
2022-08-16T06:58:34.034Z,101064.09
2022-08-16T07:01:04.430Z,101063.75
2022-08-16T07:03:55.823Z,101059.09
2022-08-16T07:06:26.513Z,101061.66
2022-08-16T07:08:54.544Z,101066.09
2022-08-16T07:11:48.070Z,101066.72
2022-08-16T07:14:25.091Z,101061.69
2022-08-16T07:17:51.976Z,101070.38
2022-08-16T07:25:10.594Z,101071.72
2022-08-16T07:27:39.517Z,101068.16
2022-08-16T07:30:39.342Z,101078.31
2022-08-16T07:32:57.754Z,101072.41
2022-08-16T07:35:25.229Z,101082.56
2022-08-16T07:37:52.024Z,101073.66
2022-08-16T07:40:19.102Z,101076.84
2022-08-16T07:42:52.546Z,101077.28
2022-08-16T07:45:19.709Z,101083.19
2022-08-16T07:47:46.567Z,101084.66
2022-08-16T07:50:57.384Z,101087.00
2022-08-16T07:53:07.018Z,101083.41
2022-08-16T07:55:45.827Z,101090.38
2022-08-16T07:58:18.429Z,101098.22
2022-08-16T08:01:01.932Z,101098.25
2022-08-16T08:03:35.951Z,101098.69
2022-08-16T08:06:06.619Z,101105.25
2022-08-16T08:08:51.327Z,101101.84
2022-08-16T08:11:20.018Z,101109.28
2022-08-16T08:13:49.165Z,101116.66
2022-08-16T08:16:19.634Z,101110.53
2022-08-16T08:18:50.638Z,101109.28
2022-08-16T08:21:27.677Z,101107.41
2022-08-16T08:24:12.785Z,101104.66
2022-08-16T08:26:43.006Z,101107.59
2022-08-16T08:29:10.011Z,101110.78
2022-08-16T08:31:42.343Z,101106.97
2022-08-16T08:34:09.528Z,101110.97
2022-08-16T08:36:40.043Z,101117.53
2022-08-16T08:39:12.548Z,101121.53
2022-08-16T08:41:42.434Z,101128.91
2022-08-16T08:44:29.413Z,101125.13
2022-08-16T08:47:09.261Z,101130.41
2022-08-16T08:49:46.559Z,101136.97
2022-08-16T08:52:35.369Z,101135.13
2022-08-16T08:55:10.249Z,101134.84
2022-08-16T08:57:38.238Z,101138.84
2022-08-16T09:00:07.941Z,101140.38
2022-08-16T09:02:44.453Z,101143.41
2022-08-16T09:05:17.771Z,101142.84
2022-08-16T09:08:00.617Z,101146.06
2022-08-16T09:10:30.526Z,101144.78
2022-08-16T09:12:59.744Z,101153.06
2022-08-16T09:15:33.177Z,101149.66
2022-08-16T09:18:25.026Z,101145.41
2022-08-16T09:20:59.410Z,101154.09
2022-08-16T09:23:29.550Z,101155.56
2022-08-16T09:25:56.364Z,101152.81
2022-08-16T09:29:15.960Z,101146.88
2022-08-16T09:31:11.070Z,101161.91
2022-08-16T09:33:39.249Z,101160.66
2022-08-16T09:36:12.308Z,101154.25
2022-08-16T09:38:59.700Z,101156.78
2022-08-16T09:41:28.154Z,101147.41
2022-08-16T09:44:00.174Z,101154.16
2022-08-16T09:46:44.521Z,101158.53
2022-08-16T09:49:14.648Z,101157.50
2022-08-16T09:51:43.267Z,101161.94
2022-08-16T09:54:10.927Z,101166.88
2022-08-16T09:56:53.069Z,101157.03
2022-08-16T09:59:22.728Z,101164.19
2022-08-16T10:01:51.609Z,101169.94
2022-08-16T10:04:29.812Z,101173.31
2022-08-16T10:07:01.846Z,101159.38
2022-08-16T10:09:44.688Z,101160.75
2022-08-16T10:12:35.048Z,101165.22
2022-08-16T10:15:15.675Z,101162.94
2022-08-16T10:18:01.087Z,101163.41
2022-08-16T10:20:38.200Z,101164.66
2022-08-16T10:23:09.829Z,101170.72
2022-08-16T10:27:20.629Z,101170.72
2022-08-16T10:28:39.937Z,101175.56
2022-08-16T10:31:11.938Z,101171.31
2022-08-16T10:33:44.586Z,101180.31
2022-08-16T10:36:39.263Z,101172.09
2022-08-16T10:39:00.237Z,101181.31
2022-08-16T10:41:27.020Z,101178.25
2022-08-16T10:43:53.980Z,101175.63
2022-08-16T10:46:39.532Z,101177.44
2022-08-16T10:49:10.165Z,101177.38
2022-08-16T10:52:01.583Z,101180.97
2022-08-16T10:54:29.153Z,101180.13
2022-08-16T10:56:57.820Z,101182.97
2022-08-16T10:59:45.849Z,101186.47
2022-08-16T11:02:59.932Z,101179.22
2022-08-16T11:05:08.868Z,101190.53
2022-08-16T11:07:51.702Z,101188.19
2022-08-16T11:19:13.099Z,101192.84
2022-08-16T11:24:41.920Z,101194.34
2022-08-16T11:27:24.176Z,101192.09
2022-08-16T11:30:00.151Z,101202.69
2022-08-16T11:32:33.560Z,101199.28
2022-08-16T11:35:16.050Z,101208.94
2022-08-16T11:38:05.898Z,101202.75
2022-08-16T11:40:53.165Z,101202.22
2022-08-16T11:43:24.852Z,101202.28
2022-08-16T11:45:55.055Z,101209.31
2022-08-16T11:48:28.938Z,101207.84
2022-08-16T11:50:57.155Z,101210.47
2022-08-16T11:53:25.127Z,101206.59
2022-08-16T11:55:54.965Z,101210.88
2022-08-16T11:58:24.442Z,101212.41
2022-08-16T12:00:53.494Z,101206.47
2022-08-16T12:03:34.595Z,101208.75
2022-08-16T12:06:30.629Z,101209.13
2022-08-16T12:09:01.006Z,101214.75
2022-08-16T12:11:31.481Z,101208.06
2022-08-16T12:14:01.013Z,101217.69
2022-08-16T12:16:31.279Z,101217.50
2022-08-16T12:20:01.165Z,101216.47
2022-08-16T12:27:09.763Z,101235.44
2022-08-16T12:30:38.679Z,101225.69
2022-08-16T12:34:05.670Z,101233.88
2022-08-16T12:37:32.126Z,101231.53
2022-08-16T12:44:53.528Z,101236.78
2022-08-16T12:48:35.170Z,101239.28
2022-08-16T12:55:44.978Z,101231.53
2022-08-16T12:59:11.595Z,101240.38
2022-08-16T13:06:33.746Z,101245.22
2022-08-16T13:10:03.489Z,101242.13
2022-08-16T13:13:36.435Z,101249.19
2022-08-16T13:17:03.077Z,101246.66
2022-08-16T13:24:16.198Z,101248.63
2022-08-16T13:28:01.681Z,101246.25
2022-08-16T13:31:30.175Z,101244.94
2022-08-16T13:34:56.656Z,101239.38
2022-08-16T13:42:17.221Z,101239.34
2022-08-16T13:45:44.898Z,101240.81
2022-08-16T13:49:11.719Z,101233.31
2022-08-16T13:52:39.706Z,101231.59
2022-08-16T13:59:50.181Z,101227.56
2022-08-16T14:03:18.381Z,101228.34
2022-08-16T14:10:36.390Z,101234.47
2022-08-16T14:14:05.649Z,101226.41
2022-08-16T14:18:14.922Z,101237.03
2022-08-16T15:12:26.982Z,101275.66
2022-08-16T15:14:58.167Z,101274.56
2022-08-16T15:17:33.884Z,101288.13
2022-08-16T15:20:08.738Z,101284.53
2022-08-16T15:22:45.304Z,101279.00
2022-08-16T15:25:19.744Z,101291.31
2022-08-16T15:27:55.063Z,101281.31
2022-08-16T15:30:59.867Z,101286.00
2022-08-16T15:33:15.654Z,101289.59
2022-08-16T15:35:43.800Z,101291.97
2022-08-16T15:38:57.090Z,101286.69
2022-08-16T15:40:59.003Z,101290.72
2022-08-16T15:43:33.845Z,101289.63
2022-08-16T15:46:54.013Z,101296.03
2022-08-16T15:49:12.170Z,101300.25
2022-08-16T15:51:39.853Z,101296.63
2022-08-16T15:54:21.087Z,101294.75
2022-08-16T15:56:56.137Z,101297.06
2022-08-16T15:59:24.636Z,101301.91
2022-08-16T16:01:55.954Z,101304.06
2022-08-16T16:04:25.908Z,101296.38
2022-08-16T16:06:54.968Z,101297.44
2022-08-16T16:09:34.646Z,101305.09
2022-08-16T16:12:41.490Z,101299.59
2022-08-16T16:14:52.724Z,101303.25
2022-08-16T16:17:19.730Z,101306.19
2022-08-16T16:19:49.755Z,101298.13
2022-08-16T16:22:22.164Z,101301.56
2022-08-16T16:24:52.204Z,101299.88
2022-08-16T16:27:19.107Z,101305.00
2022-08-16T16:29:57.731Z,101306.72
2022-08-16T16:32:34.491Z,101310.09
2022-08-16T16:35:04.477Z,101309.25
2022-08-16T16:37:32.856Z,101313.06
2022-08-16T16:40:01.238Z,101316.88
2022-08-16T16:42:31.597Z,101318.81
2022-08-16T16:45:01.504Z,101318.38
2022-08-16T16:47:30.797Z,101315.47
2022-08-16T16:50:09.906Z,101316.72
2022-08-16T16:52:44.229Z,101319.88
2022-08-16T16:55:13.462Z,101319.22
2022-08-16T16:58:00.419Z,101322.59
2022-08-16T17:00:38.355Z,101321.66
2022-08-16T17:03:08.101Z,101325.66
2022-08-16T17:05:57.261Z,101326.06
2022-08-16T17:08:26.952Z,101327.78
2022-08-16T17:10:55.449Z,101334.59
2022-08-16T17:13:23.473Z,101324.88
2022-08-16T17:15:52.606Z,101325.09
2022-08-16T17:19:14.497Z,101327.00
2022-08-16T17:21:08.796Z,101322.72
2022-08-16T17:23:58.112Z,101318.50
2022-08-16T17:26:29.995Z,101324.44
2022-08-16T17:29:02.453Z,101320.16
2022-08-16T17:31:43.227Z,101326.75
2022-08-16T17:34:29.089Z,101323.16
2022-08-16T17:36:59.715Z,101332.06
2022-08-16T17:39:29.828Z,101334.22
2022-08-16T17:42:01.536Z,101337.81
2022-08-16T17:44:29.123Z,101331.91
2022-08-16T17:46:55.896Z,101330.19
2022-08-16T17:49:24.154Z,101340.19
2022-08-16T17:51:51.796Z,101339.97
2022-08-16T17:54:29.955Z,101337.88
2022-08-16T17:57:01.480Z,101353.41
2022-08-16T17:59:29.317Z,101348.94
2022-08-16T18:01:56.797Z,101351.50
2022-08-16T18:04:48.101Z,101351.50
2022-08-16T18:07:11.359Z,101357.88
2022-08-16T18:09:41.048Z,101360.41
2022-08-16T18:12:44.838Z,101364.84
2022-08-16T18:15:08.036Z,101368.69
2022-08-16T18:17:34.712Z,101374.66
2022-08-16T18:20:01.416Z,101374.00
2022-08-16T18:22:35.026Z,101376.97
2022-08-16T18:25:01.751Z,101372.34
2022-08-16T18:27:32.670Z,101375.06
2022-08-16T18:29:59.903Z,101376.34
2022-08-16T18:32:28.336Z,101385.69
2022-08-16T18:34:55.331Z,101392.69
2022-08-16T18:37:24.157Z,101396.72
2022-08-16T18:39:51.053Z,101409.22
2022-08-16T18:42:17.894Z,101402.44
2022-08-16T18:44:44.995Z,101406.69
2022-08-16T18:47:11.832Z,101409.47
2022-08-16T18:49:39.059Z,101412.00
2022-08-16T18:52:06.274Z,101412.44
2022-08-16T18:54:34.076Z,101412.66
2022-08-16T18:57:21.027Z,101418.78
2022-08-16T18:59:47.733Z,101428.13
2022-08-16T19:02:45.606Z,101434.25
2022-08-16T19:05:32.050Z,101433.81
2022-08-16T19:07:59.144Z,101437.22
2022-08-16T19:10:25.978Z,101443.31
2022-08-16T19:12:52.793Z,101439.50
2022-08-16T19:15:23.193Z,101442.06
2022-08-16T19:17:50.055Z,101444.56
2022-08-16T19:20:21.753Z,101453.00
2022-08-16T19:23:09.906Z,101457.69
2022-08-16T19:25:48.935Z,101461.91
2022-08-16T19:28:49.131Z,101457.19
2022-08-16T19:31:26.442Z,101457.41
2022-08-16T19:33:56.848Z,101468.19
2022-08-16T19:36:42.569Z,101469.66
2022-08-16T19:39:15.926Z,101466.88
2022-08-16T19:41:45.736Z,101474.91
2022-08-16T19:44:14.523Z,101485.47
2022-08-16T19:46:45.729Z,101486.72
2022-08-16T19:49:15.682Z,101487.78
2022-08-16T19:51:44.015Z,101498.34
2022-08-16T19:54:10.757Z,101505.72
2022-08-16T19:56:37.503Z,101507.78
2022-08-16T19:59:21.848Z,101513.03
2022-08-16T20:01:52.221Z,101513.38
2022-08-16T20:04:21.109Z,101520.75
2022-08-16T20:06:47.825Z,101524.47
2022-08-16T20:09:15.723Z,101527.00
2022-08-16T20:11:45.252Z,101532.88
2022-08-16T20:14:20.173Z,101537.75
2022-08-16T20:16:58.426Z,101544.25
2022-08-16T20:19:27.749Z,101541.06
2022-08-16T20:21:56.649Z,101542.50
2022-08-16T20:24:40.160Z,101548.19
2022-08-16T20:27:08.775Z,101550.28
2022-08-16T20:29:41.348Z,101553.44
2022-08-16T20:32:08.769Z,101560.38
2022-08-16T20:34:35.683Z,101568.81
2022-08-16T20:37:02.683Z,101569.78
2022-08-16T20:39:29.442Z,101566.09
2022-08-16T20:41:56.273Z,101572.19
2022-08-16T20:44:25.137Z,101573.16
2022-08-16T20:46:52.897Z,101584.06
2022-08-16T20:49:19.687Z,101583.63
2022-08-16T20:51:50.466Z,101583.16
2022-08-16T20:54:18.274Z,101582.50
2022-08-16T20:56:45.072Z,101596.16
2022-08-16T20:59:11.907Z,101599.28
2022-08-16T21:01:49.595Z,101607.44
2022-08-16T21:04:19.146Z,101603.16
2022-08-16T21:06:53.170Z,101600.81
2022-08-16T21:09:32.804Z,101605.81
2022-08-16T21:12:02.830Z,101603.25
2022-08-16T21:14:33.634Z,101610.19
2022-08-16T21:17:02.287Z,101610.38
2022-08-16T21:19:29.268Z,101602.91
2022-08-16T21:21:56.692Z,101603.81
2022-08-16T21:24:24.401Z,101607.13
2022-08-16T21:26:56.119Z,101617.16
2022-08-16T21:29:31.634Z,101614.97
2022-08-16T21:32:15.292Z,101604.38
2022-08-16T21:34:43.712Z,101612.31
2022-08-16T21:37:11.018Z,101615.44
2022-08-16T21:39:38.494Z,101619.97
2022-08-16T21:43:14.215Z,101626.19
2022-08-16T21:45:43.116Z,101625.53
2022-08-16T21:48:10.551Z,101624.69
2022-08-16T21:50:38.787Z,101629.28
2022-08-16T21:53:08.387Z,101625.53
2022-08-16T21:55:36.099Z,101633.94
2022-08-16T21:58:03.202Z,101624.38
2022-08-16T22:00:30.214Z,101629.84
2022-08-16T22:02:59.376Z,101635.53
2022-08-16T22:05:26.431Z,101642.44
2022-08-16T22:07:55.400Z,101646.38
2022-08-16T22:11:04.584Z,101638.72
2022-08-16T22:13:25.020Z,101643.91
2022-08-16T22:15:52.879Z,101651.47
2022-08-16T22:18:20.752Z,101652.38
2022-08-16T22:20:49.047Z,101647.44
2022-08-16T22:23:24.247Z,101646.28
2022-08-16T22:25:53.430Z,101650.44
2022-08-16T22:28:22.100Z,101652.47
2022-08-16T22:30:49.857Z,101646.34
2022-08-16T22:33:27.033Z,101641.88
2022-08-16T22:35:57.151Z,101652.84
2022-08-16T22:38:54.247Z,101647.19
2022-08-16T22:41:11.618Z,101653.53
2022-08-16T22:43:38.313Z,101655.03
2022-08-16T22:46:05.090Z,101655.91
2022-08-16T22:48:32.637Z,101659.84
2022-08-16T22:51:06.246Z,101657.50
2022-08-16T22:53:34.180Z,101661.44
2022-08-16T22:56:04.571Z,101660.75
2022-08-16T22:58:34.097Z,101661.31
2022-08-16T23:01:06.145Z,101665.25
2022-08-16T23:03:33.619Z,101666.47
2022-08-16T23:06:00.845Z,101666.00
2022-08-16T23:08:38.182Z,101668.00
2022-08-16T23:11:09.243Z,101668.03
2022-08-16T23:13:36.556Z,101670.97
2022-08-16T23:16:10.621Z,101669.81
2022-08-16T23:18:39.238Z,101666.75
2022-08-16T23:21:09.387Z,101667.97
2022-08-16T23:23:37.565Z,101674.84
2022-08-16T23:26:46.084Z,101674.13
2022-08-16T23:28:52.128Z,101671.28
2022-08-16T23:31:19.677Z,101681.03
2022-08-16T23:33:46.483Z,101678.00
2022-08-16T23:36:13.623Z,101677.00
2022-08-16T23:38:40.856Z,101673.22
2022-08-16T23:41:12.308Z,101670.34
2022-08-16T23:43:43.745Z,101679.44
2022-08-16T23:46:16.972Z,101673.97
2022-08-16T23:49:57.072Z,101664.41
2022-08-16T23:51:32.354Z,101670.56
2022-08-16T23:54:00.240Z,101674.34
2022-08-16T23:56:26.923Z,101670.75
2022-08-16T23:59:02.974Z,101658.94
